Time;durP1;ratioP1;P1;durP2;ratioP2;P2;SDS_P1;SDS_P2;PMS_P1;PMS_P2;Temp;Humidity;BMP_temperature;BMP_pressure;BME280_temperature;BME280_humidity;BME280_pressure;Samples;Min_cycle;Max_cycle;Signal;HPM_P1;HPM_P2
2023/05/25 00:02:24;;;;;;;10.05;5.07;;;;;;;14.83;87.51;94553.69;5099568;28;20206;-77
2023/05/25 00:04:51;;;;;;;7.15;5.45;;;;;;;15.04;86.52;94558.03;5101643;28;20722;-78
2023/05/25 00:07:18;;;;;;;6.60;4.95;;;;;;;15.03;86.11;94570.09;5108910;28;20209;-78
2023/05/25 00:09:46;;;;;;;8.18;4.75;;;;;;;14.93;86.43;94569.50;5110287;28;20276;-78
2023/05/25 00:12:14;;;;;;;8.82;5.43;;;;;;;14.88;86.08;94567.06;5102656;28;20657;-78
2023/05/25 00:14:41;;;;;;;9.88;5.32;;;;;;;14.90;86.13;94564.75;5107409;28;20228;-77
2023/05/25 00:17:09;;;;;;;7.85;4.97;;;;;;;14.93;85.88;94561.31;5104454;28;20197;-78
2023/05/25 00:19:36;;;;;;;8.82;5.13;;;;;;;14.85;86.29;94573.22;5102416;28;20263;-77
2023/05/25 00:22:03;;;;;;;11.85;5.82;;;;;;;14.76;86.28;94575.34;5098457;28;20190;-79
2023/05/25 00:24:31;;;;;;;7.45;5.50;;;;;;;14.58;87.42;94568.72;5094767;28;20194;-77
2023/05/25 00:26:59;;;;;;;9.00;5.85;;;;;;;14.45;89.62;94575.41;5110046;28;20201;-78
2023/05/25 00:29:26;;;;;;;9.13;6.25;;;;;;;14.34;90.63;94574.34;5105073;28;20667;-78
2023/05/25 00:31:53;;;;;;;10.20;5.75;;;;;;;14.29;91.09;94555.50;5095316;28;20209;-78
2023/05/25 00:34:20;;;;;;;12.05;6.80;;;;;;;14.37;90.87;94568.16;5090078;28;20711;-77
2023/05/25 00:36:48;;;;;;;12.07;6.55;;;;;;;14.45;90.36;94575.41;5105946;28;20327;-77
2023/05/25 00:39:15;;;;;;;10.45;6.78;;;;;;;14.50;89.26;94572.38;5096728;28;20289;-78
2023/05/25 00:41:44;;;;;;;9.57;6.20;;;;;;;14.47;89.50;94568.47;5110461;28;20660;-78
2023/05/25 00:44:13;;;;;;;11.32;6.50;;;;;;;14.45;89.64;94575.41;5110179;28;20217;-78
2023/05/25 00:46:47;;;;;;;10.82;6.68;;;;;;;14.44;90.03;94579.28;5108309;28;20240;-77
2023/05/25 00:49:15;;;;;;;9.15;6.10;;;;;;;14.43;89.93;94588.59;5096864;28;20198;-77
2023/05/25 00:51:45;;;;;;;10.85;6.13;;;;;;;14.38;90.21;94588.81;5101447;28;20205;-78
2023/05/25 00:54:13;;;;;;;13.10;5.97;;;;;;;14.29;90.71;94585.47;5094499;28;20271;-78
2023/05/25 00:56:44;;;;;;;9.45;6.05;;;;;;;14.24;91.16;94581.88;5101852;28;20620;-78
2023/05/25 00:59:17;;;;;;;9.18;6.13;;;;;;;14.24;91.13;94581.88;5099864;28;20198;-78
2023/05/25 01:01:46;;;;;;;8.77;5.72;;;;;;;14.17;91.75;94584.44;5100546;28;20185;-77
2023/05/25 01:04:16;;;;;;;7.22;5.40;;;;;;;14.10;92.09;94586.97;5105756;28;20201;-79
2023/05/25 01:06:47;;;;;;;11.68;6.05;;;;;;;13.90;92.42;94568.16;5102455;28;20202;-76
2023/05/25 01:09:17;;;;;;;11.52;6.00;;;;;;;13.91;92.82;94597.75;5109241;28;20720;-77
2023/05/25 01:11:49;;;;;;;10.35;7.00;;;;;;;13.87;92.96;94599.59;5100019;28;20235;-77
2023/05/25 01:14:19;;;;;;;9.88;6.45;;;;;;;13.93;93.14;94602.88;5104134;28;20707;-77
2023/05/25 01:16:47;;;;;;;10.20;6.82;;;;;;;13.90;93.13;94607.06;5105441;28;20193;-77
2023/05/25 01:19:14;;;;;;;9.80;6.38;;;;;;;13.96;92.73;94602.94;5104328;28;20283;-77
2023/05/25 01:21:48;;;;;;;8.75;6.05;;;;;;;14.02;92.16;94596.09;5103165;28;20293;-77
2023/05/25 01:24:22;;;;;;;8.05;5.80;;;;;;;14.04;91.71;94587.59;5093592;28;20197;-76
2023/05/25 01:26:56;;;;;;;8.48;6.07;;;;;;;14.00;91.50;94579.31;5108071;28;20197;-77
2023/05/25 01:29:24;;;;;;;8.57;5.97;;;;;;;13.86;92.11;94587.13;5097514;28;20360;-77
2023/05/25 01:31:53;;;;;;;8.50;5.70;;;;;;;13.89;92.45;94586.44;5104596;28;20744;-77
2023/05/25 01:34:21;;;;;;;10.27;5.65;;;;;;;13.75;93.02;94588.78;5107776;28;20238;-76
2023/05/25 01:36:49;;;;;;;9.63;5.80;;;;;;;13.79;92.67;94585.00;5106492;28;20667;-77
2023/05/25 01:39:17;;;;;;;11.38;5.68;;;;;;;13.64;93.60;94574.09;5100632;28;20255;-78
2023/05/25 01:41:43;;;;;;;12.25;5.57;;;;;;;13.58;94.01;94575.47;5111250;28;20206;-77
2023/05/25 01:44:10;;;;;;;9.65;5.78;;;;;;;13.53;94.14;94571.84;5111707;28;20609;-77
2023/05/25 01:46:39;;;;;;;10.20;5.18;;;;;;;13.51;94.16;94557.03;5110044;28;20224;-78
2023/05/25 01:49:16;;;;;;;11.85;6.00;;;;;;;13.51;94.15;94560.53;5106502;28;20205;-76
2023/05/25 01:51:54;;;;;;;9.00;5.93;;;;;;;13.50;94.09;94548.06;5103207;28;20227;-77
2023/05/25 01:54:22;;;;;;;7.25;5.32;;;;;;;13.52;93.98;94556.69;5104838;28;20217;-77
2023/05/25 01:56:52;;;;;;;7.70;5.70;;;;;;;13.52;93.98;94567.56;5102106;28;20285;-76
2023/05/25 01:59:21;;;;;;;8.95;6.15;;;;;;;13.60;92.71;94567.75;5094689;28;20202;-79
2023/05/25 02:01:50;;;;;;;9.38;5.30;;;;;;;13.83;91.32;94566.03;5102386;28;20249;-77
2023/05/25 02:04:18;;;;;;;9.57;5.57;;;;;;;13.72;91.68;94570.41;5106434;28;20676;-76
2023/05/25 02:06:51;;;;;;;8.38;5.28;;;;;;;13.59;91.80;94572.41;5099761;28;20204;-77
2023/05/25 02:09:18;;;;;;;15.13;6.07;;;;;;;13.58;93.28;94572.75;5100671;28;20254;-76
2023/05/25 02:11:45;;;;;;;12.43;6.20;;;;;;;13.37;94.31;94571.03;5107205;28;20197;-75
2023/05/25 02:14:11;;;;;;;14.25;6.65;;;;;;;13.38;95.24;94571.81;5098717;28;20236;-78
2023/05/25 02:16:38;;;;;;;9.82;5.28;;;;;;;13.33;96.01;94575.56;5109347;28;20197;-77
2023/05/25 02:19:06;;;;;;;10.77;6.22;;;;;;;13.18;96.11;94580.94;5100380;28;20205;-78
2023/05/25 02:21:35;;;;;;;12.02;6.18;;;;;;;13.02;97.55;94580.84;5111657;28;20201;-77
2023/05/25 02:24:03;;;;;;;9.25;6.70;;;;;;;12.88;99.82;94586.66;5100782;28;20248;-76
2023/05/25 02:26:30;;;;;;;12.05;6.88;;;;;;;12.87;100.00;94587.78;5098865;28;20276;-76
2023/05/25 02:28:57;;;;;;;10.15;7.47;;;;;;;13.06;99.31;94598.06;5096031;28;20197;-77
2023/05/25 02:31:24;;;;;;;15.68;7.35;;;;;;;13.13;98.30;94599.06;5107931;28;20289;-76
2023/05/25 02:33:50;;;;;;;7.63;5.97;;;;;;;13.26;96.76;94597.13;5110864;28;20282;-78
2023/05/25 02:36:17;;;;;;;8.82;6.20;;;;;;;13.28;94.88;94605.72;5107471;28;20202;-77
2023/05/25 02:38:45;;;;;;;14.52;6.03;;;;;;;13.07;95.01;94605.88;5102315;28;20190;-77
2023/05/25 02:41:15;;;;;;;14.80;6.57;;;;;;;12.95;96.32;94602.41;5103777;28;20205;-77
2023/05/25 02:43:42;;;;;;;8.52;6.10;;;;;;;12.98;96.40;94607.94;5101150;28;20279;-78
2023/05/25 02:46:08;;;;;;;9.63;6.32;;;;;;;13.01;95.90;94618.13;5105549;28;20574;-78
2023/05/25 02:48:35;;;;;;;10.18;6.50;;;;;;;13.04;96.16;94624.81;5100015;28;20198;-77
2023/05/25 02:51:02;;;;;;;9.95;6.57;;;;;;;13.06;96.02;94620.63;5107192;28;20196;-78
2023/05/25 02:53:29;;;;;;;8.55;5.72;;;;;;;13.16;95.83;94622.88;5105598;28;20389;-78
2023/05/25 02:55:56;;;;;;;12.85;5.93;;;;;;;13.20;95.35;94620.28;5105858;28;20194;-78
2023/05/25 02:58:25;;;;;;;9.35;6.00;;;;;;;13.25;94.97;94617.31;5107039;28;20232;-79
2023/05/25 03:00:53;;;;;;;8.88;5.97;;;;;;;13.24;94.54;94626.63;5097874;28;20254;-78
2023/05/25 03:03:20;;;;;;;12.43;6.10;;;;;;;13.30;94.17;94627.16;5104934;28;20523;-77
2023/05/25 03:05:46;;;;;;;8.48;5.80;;;;;;;13.33;94.20;94629.97;5097795;28;20206;-76
2023/05/25 03:08:13;;;;;;;9.10;5.82;;;;;;;13.39;93.88;94631.31;5108129;28;20193;-77
2023/05/25 03:10:40;;;;;;;10.32;6.10;;;;;;;13.49;93.52;94627.34;5105392;28;20201;-78
2023/05/25 03:13:07;;;;;;;7.97;5.50;;;;;;;13.61;92.86;94626.50;5102502;28;20680;-77
2023/05/25 03:15:35;;;;;;;7.47;5.85;;;;;;;13.85;92.41;94627.16;5104706;28;20229;-78
2023/05/25 03:18:02;;;;;;;12.05;6.25;;;;;;;14.23;90.87;94625.81;5103049;28;20201;-78
2023/05/25 03:20:29;;;;;;;8.63;5.40;;;;;;;14.69;88.98;94618.81;5104976;28;20274;-77
2023/05/25 03:22:56;;;;;;;12.48;5.45;;;;;;;15.06;85.98;94629.41;5102326;28;20241;-77
2023/05/25 03:25:22;;;;;;;12.05;5.13;;;;;;;15.17;84.53;94622.25;5100925;28;20203;-77
2023/05/25 03:27:52;;;;;;;7.07;5.50;;;;;;;15.06;85.39;94615.75;5100531;28;20194;-77
2023/05/25 03:30:18;;;;;;;9.88;6.63;;;;;;;15.07;84.92;94617.34;5102320;28;20201;-77
2023/05/25 03:32:46;;;;;;;6.80;4.95;;;;;;;15.15;84.45;94613.63;5098005;28;20251;-78
2023/05/25 03:35:13;;;;;;;7.50;5.55;;;;;;;15.46;83.81;94621.69;5098101;28;20267;-78
2023/05/25 03:37:40;;;;;;;9.23;5.78;;;;;;;16.07;81.79;94625.66;5106591;28;20279;-78
2023/05/25 03:40:10;;;;;;;8.32;5.57;;;;;;;16.69;79.84;94629.91;5097574;28;20210;-77
2023/05/25 03:42:37;;;;;;;9.80;7.40;;;;;;;17.12;78.02;94619.59;5094427;28;20191;-76
2023/05/25 03:45:05;;;;;;;13.45;6.15;;;;;;;17.69;76.16;94623.94;5107705;28;20320;-77
2023/05/25 03:47:33;;;;;;;8.82;6.40;;;;;;;18.36;73.38;94621.94;5104042;28;20635;-76
2023/05/25 03:50:01;;;;;;;6.75;4.68;;;;;;;18.86;70.68;94605.94;5102527;28;20202;-77
2023/05/25 03:52:28;;;;;;;6.35;4.75;;;;;;;19.42;68.76;94611.00;5093405;28;20241;-78
2023/05/25 03:54:55;;;;;;;6.20;4.97;;;;;;;20.16;65.92;94604.28;5104650;28;20232;-75
2023/05/25 03:57:22;;;;;;;9.85;5.18;;;;;;;21.04;63.36;94603.63;5106112;28;20237;-76
2023/05/25 03:59:49;;;;;;;6.13;4.75;;;;;;;21.66;61.27;94605.88;5109419;28;20223;-77
2023/05/25 04:02:15;;;;;;;8.48;5.60;;;;;;;21.79;59.26;94614.50;5102895;28;20532;-76
2023/05/25 04:04:42;;;;;;;7.63;5.72;;;;;;;22.18;58.43;94611.59;5102542;28;20284;-78
2023/05/25 04:07:11;;;;;;;10.48;6.20;;;;;;;21.25;60.64;94608.34;5098266;28;20670;-77
2023/05/25 04:09:37;;;;;;;9.43;6.25;;;;;;;21.86;58.67;94623.56;5109112;28;20652;-76
2023/05/25 04:12:05;;;;;;;8.35;6.90;;;;;;;22.39;57.69;94622.53;5109706;28;20651;-77
2023/05/25 04:14:32;;;;;;;11.38;7.15;;;;;;;21.53;58.59;94624.03;5099686;28;20233;-76
2023/05/25 04:16:58;;;;;;;14.55;8.30;;;;;;;21.62;58.82;94632.66;5106255;28;20267;-75
2023/05/25 04:19:25;;;;;;;12.13;8.20;;;;;;;21.94;58.29;94632.56;5102634;28;20202;-77
2023/05/25 04:21:52;;;;;;;8.88;7.18;;;;;;;22.02;58.43;94628.63;5107483;28;20221;-78
2023/05/25 04:24:21;;;;;;;10.80;7.03;;;;;;;21.67;58.74;94625.97;5098896;28;20262;-77
2023/05/25 04:26:49;;;;;;;12.10;7.95;;;;;;;20.71;62.39;94637.03;5093291;28;20201;-77
2023/05/25 04:29:16;;;;;;;11.20;8.13;;;;;;;20.83;62.15;94642.16;5101885;28;20197;-77
2023/05/25 04:31:44;;;;;;;10.75;7.95;;;;;;;21.77;60.14;94639.72;5109679;28;20258;-77
2023/05/25 04:34:13;;;;;;;11.68;8.02;;;;;;;22.27;57.69;94645.09;5097426;28;20719;-78
2023/05/25 04:36:41;;;;;;;13.25;9.48;;;;;;;21.78;58.78;94646.03;5104486;28;20290;-77
2023/05/25 04:39:08;;;;;;;11.18;9.00;;;;;;;21.98;58.58;94653.44;5101611;28;20189;-76
2023/05/25 04:41:38;;;;;;;15.15;8.90;;;;;;;21.86;58.39;94656.66;5097487;28;20601;-78
2023/05/25 04:44:05;;;;;;;11.82;9.60;;;;;;;21.51;59.86;94659.47;5109212;28;20222;-77
2023/05/25 04:46:35;;;;;;;13.98;9.45;;;;;;;20.95;61.42;94655.53;5099642;28;20301;-77
2023/05/25 04:49:03;;;;;;;14.00;9.30;;;;;;;22.93;56.45;94651.41;5095722;28;20214;-77
2023/05/25 04:51:31;;;;;;;16.23;9.82;;;;;;;24.23;53.65;94649.78;5103047;28;20213;-75
2023/05/25 04:53:58;;;;;;;17.30;10.15;;;;;;;25.03;50.78;94637.97;5100766;28;20714;-77
2023/05/25 04:56:25;;;;;;;14.25;9.75;;;;;;;26.36;47.49;94629.66;5100581;28;20787;-75
2023/05/25 04:58:53;;;;;;;12.02;9.40;;;;;;;27.53;45.17;94627.72;5098002;28;20309;-77
2023/05/25 05:01:20;;;;;;;14.55;9.55;;;;;;;28.13;43.04;94625.34;5097836;28;20680;-78
2023/05/25 05:03:47;;;;;;;15.38;9.10;;;;;;;28.87;42.12;94616.81;5095720;28;20289;-76
2023/05/25 05:06:15;;;;;;;12.55;8.75;;;;;;;28.93;41.33;94619.84;5103566;28;20208;-75
2023/05/25 05:08:42;;;;;;;14.13;8.65;;;;;;;29.35;40.59;94617.69;5106034;28;20201;-76
2023/05/25 05:11:08;;;;;;;15.73;8.60;;;;;;;29.58;40.14;94620.13;5097108;28;20202;-76
2023/05/25 05:13:35;;;;;;;12.95;8.63;;;;;;;28.81;41.70;94609.47;5110436;28;20687;-76
2023/05/25 05:16:04;;;;;;;12.13;8.82;;;;;;;28.79;41.55;94615.50;5101492;28;20233;-75
2023/05/25 05:18:31;;;;;;;12.85;9.52;;;;;;;27.86;43.25;94622.13;5102539;28;20220;-76
2023/05/25 05:20:57;;;;;;;14.38;8.90;;;;;;;28.44;42.00;94622.09;5108129;28;20727;-75
2023/05/25 05:23:24;;;;;;;15.35;9.75;;;;;;;28.62;41.42;94622.34;5110199;28;20203;-76
2023/05/25 05:25:51;;;;;;;13.93;9.63;;;;;;;30.13;39.24;94614.25;5100473;28;20652;-75
2023/05/25 05:28:18;;;;;;;17.77;10.25;;;;;;;29.30;40.14;94623.81;5100314;28;20194;-74
2023/05/25 05:30:46;;;;;;;14.75;9.15;;;;;;;27.12;43.93;94641.47;5113777;28;20548;-77
2023/05/25 05:33:14;;;;;;;13.82;10.07;;;;;;;25.50;47.48;94642.34;5112843;28;20304;-75
2023/05/25 05:35:41;;;;;;;20.10;11.38;;;;;;;23.82;52.93;94658.13;5113475;28;20267;-76
2023/05/25 05:38:08;;;;;;;13.93;10.13;;;;;;;24.66;51.67;94650.78;5113360;28;20205;-77
2023/05/25 05:40:35;;;;;;;11.25;9.65;;;;;;;25.13;50.58;94651.69;5113560;28;20205;-75
2023/05/25 05:43:01;;;;;;;15.20;9.43;;;;;;;25.27;50.25;94656.22;5106717;28;20201;-75
2023/05/25 05:45:28;;;;;;;12.55;10.13;;;;;;;25.09;49.60;94655.72;5094818;28;20283;-76
2023/05/25 05:47:55;;;;;;;15.55;10.60;;;;;;;22.87;56.18;94666.03;5104093;28;20211;-75
2023/05/25 05:50:23;;;;;;;16.52;11.05;;;;;;;24.00;54.11;94665.06;5112946;28;20198;-74
2023/05/25 05:52:52;;;;;;;15.45;11.00;;;;;;;25.10;51.35;94657.28;5111916;28;20201;-77
2023/05/25 05:55:19;;;;;;;16.55;11.50;;;;;;;24.85;51.56;94662.41;5112363;28;20328;-76
2023/05/25 05:57:45;;;;;;;13.57;11.10;;;;;;;25.44;49.43;94657.91;5102816;28;20260;-76
2023/05/25 06:00:14;;;;;;;15.73;11.25;;;;;;;25.30;50.24;94663.69;5110295;28;20255;-77
2023/05/25 06:02:41;;;;;;;19.88;11.80;;;;;;;26.09;48.24;94658.34;5109866;28;20202;-75
2023/05/25 06:05:09;;;;;;;13.55;10.60;;;;;;;27.18;45.72;94659.22;5112460;28;20262;-75
2023/05/25 06:07:37;;;;;;;15.25;11.90;;;;;;;27.89;43.51;94654.66;5112603;28;20194;-78
2023/05/25 06:10:05;;;;;;;17.23;11.40;;;;;;;29.08;40.87;94642.50;5112497;28;20206;-76
2023/05/25 06:12:31;;;;;;;18.20;12.18;;;;;;;29.97;38.91;94634.78;5112564;28;20341;-76
2023/05/25 06:14:58;;;;;;;14.15;12.18;;;;;;;31.12;36.78;94646.13;5105491;28;20290;-74
2023/05/25 06:17:25;;;;;;;14.43;11.20;;;;;;;30.08;38.35;94646.34;5105561;28;20198;-75
2023/05/25 06:19:52;;;;;;;21.45;11.40;;;;;;;28.43;41.94;94654.00;5111617;28;20217;-75
2023/05/25 06:22:18;;;;;;;17.63;11.80;;;;;;;28.89;41.42;94644.28;5112417;28;20735;-76
2023/05/25 06:24:46;;;;;;;19.85;13.13;;;;;;;29.96;39.12;94649.94;5099281;28;20790;-76
2023/05/25 06:27:13;;;;;;;17.50;12.70;;;;;;;31.23;36.50;94650.06;5109360;28;20209;-75
2023/05/25 06:29:40;;;;;;;16.17;11.93;;;;;;;31.07;37.36;94648.25;5111907;28;20202;-75
2023/05/25 06:32:09;;;;;;;16.95;11.88;;;;;;;31.73;35.40;94648.81;5106491;28;20206;-75
2023/05/25 06:34:37;;;;;;;14.15;10.57;;;;;;;32.46;35.51;94648.88;5105927;28;20229;-73
2023/05/25 06:37:04;;;;;;;14.15;10.45;;;;;;;30.86;36.61;94649.09;5107990;28;20229;-75
2023/05/25 06:39:31;;;;;;;17.63;10.35;;;;;;;30.18;37.15;94653.59;5109427;28;20202;-75
2023/05/25 06:42:00;;;;;;;13.00;10.10;;;;;;;30.01;38.35;94657.78;5111768;28;20228;-76
2023/05/25 06:44:26;;;;;;;11.50;9.10;;;;;;;29.24;39.55;94659.13;5108391;28;20288;-77
2023/05/25 06:46:53;;;;;;;12.52;8.57;;;;;;;29.48;40.13;94654.78;5111259;28;20217;-77
2023/05/25 06:49:20;;;;;;;13.63;8.43;;;;;;;27.18;43.56;94664.78;5095473;28;20228;-76
2023/05/25 06:51:47;;;;;;;11.10;7.40;;;;;;;28.52;42.63;94659.69;5110765;28;20198;-77
2023/05/25 06:54:14;;;;;;;9.68;8.00;;;;;;;27.73;42.75;94668.63;5111190;28;20610;-77
2023/05/25 06:56:41;;;;;;;10.88;7.80;;;;;;;28.01;42.21;94670.66;5104311;28;20601;-78
2023/05/25 06:59:09;;;;;;;10.02;7.82;;;;;;;26.77;44.30;94671.66;5099005;28;20206;-78
2023/05/25 07:01:36;;;;;;;10.23;7.57;;;;;;;27.85;43.07;94670.69;5105194;28;20198;-76
2023/05/25 07:04:03;;;;;;;10.70;6.80;;;;;;;28.34;42.91;94665.00;5110816;28;20220;-78
2023/05/25 07:06:30;;;;;;;9.70;7.45;;;;;;;27.24;43.57;94672.16;5110601;28;20197;-75
2023/05/25 07:08:57;;;;;;;13.20;7.65;;;;;;;25.73;47.77;94668.53;5104922;28;20204;-78
2023/05/25 07:11:23;;;;;;;11.05;7.28;;;;;;;25.93;48.00;94672.16;5104758;28;20206;-76
2023/05/25 07:13:50;;;;;;;11.98;7.20;;;;;;;27.78;44.88;94654.16;5111242;28;20201;-76
2023/05/25 07:16:18;;;;;;;10.43;6.78;;;;;;;28.71;43.77;94657.94;5108482;28;20237;-77
2023/05/25 07:18:45;;;;;;;13.02;6.30;;;;;;;29.37;43.43;94636.78;5096740;28;20244;-74
2023/05/25 07:21:12;;;;;;;7.75;5.70;;;;;;;27.16;46.67;94656.09;5104824;28;20221;-76
2023/05/25 07:23:40;;;;;;;8.23;6.07;;;;;;;25.65;49.79;94669.88;5095896;28;20193;-77
2023/05/25 07:26:06;;;;;;;6.70;6.00;;;;;;;23.56;55.25;94667.88;5096647;28;20248;-76
2023/05/25 07:28:33;;;;;;;7.68;5.63;;;;;;;24.60;53.38;94663.53;5103969;28;20301;-75
2023/05/25 07:31:00;;;;;;;6.30;5.70;;;;;;;25.56;51.60;94662.06;5093278;28;20204;-73
2023/05/25 07:33:28;;;;;;;5.97;5.25;;;;;;;27.08;47.46;94657.44;5097386;28;20229;-76
2023/05/25 07:35:55;;;;;;;7.53;5.38;;;;;;;26.95;47.95;94670.47;5096815;28;20230;-75
2023/05/25 07:38:22;;;;;;;8.13;5.75;;;;;;;25.77;50.53;94666.50;5110019;28;20201;-75
2023/05/25 07:40:49;;;;;;;7.03;6.32;;;;;;;26.05;48.80;94671.50;5110271;28;20647;-76
2023/05/25 07:43:16;;;;;;;9.23;6.25;;;;;;;25.81;50.55;94673.56;5100632;28;20274;-79
2023/05/25 07:45:43;;;;;;;10.15;5.97;;;;;;;23.70;55.51;94689.88;5103559;28;20209;-75
2023/05/25 07:48:09;;;;;;;8.30;6.30;;;;;;;22.57;58.68;94686.72;5099671;28;20194;-78
2023/05/25 07:50:38;;;;;;;6.63;5.28;;;;;;;22.19;60.21;94666.41;5101794;28;20289;-84
2023/05/25 07:53:04;;;;;;;11.80;6.22;;;;;;;21.50;62.71;94674.44;5093471;28;20198;-77
2023/05/25 07:55:31;;;;;;;6.93;5.57;;;;;;;21.30;63.99;94690.63;5095595;28;20226;-78
2023/05/25 07:57:58;;;;;;;5.93;4.70;;;;;;;21.11;62.55;94686.25;5099700;28;20289;-75
2023/05/25 08:00:25;;;;;;;6.65;4.95;;;;;;;21.01;63.08;94692.56;5103707;28;20201;-77
2023/05/25 08:02:52;;;;;;;5.72;5.05;;;;;;;20.93;62.69;94702.75;5097342;28;20201;-74
2023/05/25 08:05:18;;;;;;;7.32;4.47;;;;;;;20.91;62.52;94698.81;5104574;28;20311;-75
2023/05/25 08:07:47;;;;;;;5.22;4.32;;;;;;;20.71;63.64;94698.41;5108799;28;20201;-75
2023/05/25 08:10:13;;;;;;;6.43;4.50;;;;;;;20.47;64.86;94699.94;5110183;28;20423;-78
2023/05/25 08:12:40;;;;;;;9.27;5.10;;;;;;;20.30;65.67;94714.38;5110464;28;20220;-75
2023/05/25 08:15:08;;;;;;;9.48;5.65;;;;;;;20.04;67.05;94711.91;5101959;28;20195;-76
2023/05/25 08:17:34;;;;;;;13.95;6.93;;;;;;;19.61;68.91;94744.66;5099158;28;20233;-75
2023/05/25 08:20:04;;;;;;;11.98;9.00;;;;;;;18.92;72.78;94744.44;5105399;28;20312;-74
2023/05/25 08:22:31;;;;;;;11.68;8.07;;;;;;;18.83;73.59;94749.44;5111107;28;20212;-74
2023/05/25 08:24:59;;;;;;;9.57;6.07;;;;;;;18.57;74.23;94763.25;5109398;28;20213;-74
2023/05/25 08:27:27;;;;;;;14.40;8.93;;;;;;;18.32;75.00;94762.94;5108972;28;20676;-72
2023/05/25 08:29:54;;;;;;;13.43;8.15;;;;;;;18.32;75.63;94763.72;5108813;28;20210;-74
2023/05/25 08:32:21;;;;;;;8.02;4.97;;;;;;;18.05;76.75;94771.22;5108830;28;20201;-74
2023/05/25 08:34:48;;;;;;;11.02;5.43;;;;;;;17.92;77.75;94763.59;5109042;28;20233;-75
2023/05/25 08:37:15;;;;;;;8.43;6.07;;;;;;;17.67;79.11;94775.00;5107322;28;20232;-79
2023/05/25 08:39:42;;;;;;;11.75;6.30;;;;;;;17.45;79.96;94772.28;5107066;28;20734;-76
2023/05/25 08:42:10;;;;;;;12.75;7.40;;;;;;;17.47;80.87;94778.97;5109235;28;20228;-76
2023/05/25 08:44:37;;;;;;;11.88;6.75;;;;;;;17.47;81.13;94778.19;5101895;28;20612;-76
2023/05/25 08:47:07;;;;;;;8.40;6.30;;;;;;;17.46;81.70;94777.41;5109342;28;20209;-76
2023/05/25 08:49:37;;;;;;;11.45;6.45;;;;;;;17.57;83.59;94788.50;5109278;28;20233;-76
2023/05/25 08:52:04;;;;;;;8.88;6.40;;;;;;;17.64;84.19;94788.63;5103030;28;20330;-76
2023/05/25 08:54:34;;;;;;;8.88;7.32;;;;;;;17.62;85.15;94791.75;5104631;28;20714;-75
2023/05/25 08:57:10;;;;;;;8.25;5.45;;;;;;;17.30;83.80;94793.16;5100432;28;20768;-74
2023/05/25 08:59:44;;;;;;;10.93;6.13;;;;;;;17.37;86.80;94790.53;5103210;28;20246;-74
2023/05/25 09:02:21;;;;;;;10.98;5.70;;;;;;;17.30;84.71;94791.22;5100599;28;20221;-76
2023/05/25 09:04:50;;;;;;;8.10;5.50;;;;;;;17.38;85.62;94798.38;5098942;28;20205;-77
2023/05/25 09:07:18;;;;;;;10.00;6.43;;;;;;;17.36;86.77;94797.16;5100158;28;20880;-74
2023/05/25 09:09:46;;;;;;;9.15;4.78;;;;;;;17.38;84.81;94809.34;5103255;28;20206;-75
2023/05/25 09:12:13;;;;;;;5.45;4.03;;;;;;;16.92;84.65;94808.56;5102634;28;20197;-75
2023/05/25 09:14:44;;;;;;;7.03;3.80;;;;;;;16.93;86.92;94807.41;5104095;28;20205;-77
2023/05/25 09:17:12;;;;;;;6.30;3.97;;;;;;;16.72;87.77;94809.72;5101473;28;20741;-77
2023/05/25 09:19:39;;;;;;;5.30;3.70;;;;;;;16.52;89.14;94810.88;5099189;28;20241;-78
2023/05/25 09:22:06;;;;;;;4.82;3.50;;;;;;;16.46;88.34;94804.09;5104949;28;20190;-77
2023/05/25 09:24:34;;;;;;;5.30;4.65;;;;;;;16.45;89.39;94807.97;5099475;28;20197;-77
2023/05/25 09:27:02;;;;;;;6.50;4.30;;;;;;;16.58;92.64;94798.47;5098394;28;20251;-78
2023/05/25 09:29:29;;;;;;;5.55;4.13;;;;;;;16.72;92.39;94798.78;5099814;28;20212;-78
2023/05/25 09:31:57;;;;;;;7.75;4.40;;;;;;;17.06;90.20;94799.81;5100225;28;20696;-78
2023/05/25 09:34:30;;;;;;;8.80;5.00;;;;;;;17.47;92.23;94803.63;5099169;28;20696;-76
2023/05/25 09:36:57;;;;;;;6.15;4.30;;;;;;;17.57;88.84;94792.03;5100852;28;20221;-77
2023/05/25 09:39:25;;;;;;;11.88;4.60;;;;;;;17.90;90.45;94790.59;5099137;28;20275;-76
2023/05/25 09:41:52;;;;;;;5.20;4.25;;;;;;;17.83;85.82;94779.53;5106518;28;20224;-75
2023/05/25 09:44:19;;;;;;;5.13;4.30;;;;;;;18.06;86.09;94778.28;5104396;28;20530;-76
2023/05/25 09:46:46;;;;;;;5.20;4.05;;;;;;;18.13;84.91;94776.81;5095869;28;20591;-75
2023/05/25 09:49:15;;;;;;;5.25;4.32;;;;;;;18.03;83.35;94773.56;5099646;28;20213;-75
2023/05/25 09:51:42;;;;;;;5.00;4.47;;;;;;;18.31;84.36;94764.88;5100281;28;20593;-77
2023/05/25 09:54:10;;;;;;;5.00;4.13;;;;;;;18.91;84.88;94764.81;5101949;28;20606;-76
2023/05/25 09:56:37;;;;;;;5.43;4.88;;;;;;;19.29;82.91;94766.34;5104062;28;20263;-76
2023/05/25 09:59:04;;;;;;;5.75;4.07;;;;;;;19.62;78.98;94761.94;5109081;28;20251;-75
2023/05/25 10:01:32;;;;;;;6.55;4.10;;;;;;;19.63;82.60;94756.06;5115445;28;20202;-78
2023/05/25 10:04:00;;;;;;;7.38;4.70;;;;;;;19.81;78.71;94748.72;5113320;28;20247;-77
2023/05/25 10:06:28;;;;;;;7.38;4.82;;;;;;;20.22;78.11;94748.56;5107816;28;20202;-77
2023/05/25 10:08:57;;;;;;;5.38;4.63;;;;;;;20.29;76.63;94748.56;5109132;28;20738;-76
2023/05/25 10:11:25;;;;;;;6.65;4.03;;;;;;;19.82;77.98;94749.47;5112812;28;20288;-76
2023/05/25 10:13:53;;;;;;;5.88;4.85;;;;;;;19.62;76.63;94756.44;5110848;28;20640;-76
2023/05/25 10:16:25;;;;;;;6.70;5.15;;;;;;;19.17;75.20;94748.19;5103601;28;20687;-76
2023/05/25 10:18:57;;;;;;;7.72;5.13;;;;;;;19.08;79.48;94744.97;5111635;28;20202;-77
2023/05/25 10:21:27;;;;;;;8.50;5.72;;;;;;;19.58;82.48;94739.13;5110265;28;20201;-79
2023/05/25 10:24:02;;;;;;;6.90;5.80;;;;;;;20.46;75.64;94727.84;5110677;28;20266;-79
2023/05/25 10:26:33;;;;;;;9.60;6.65;;;;;;;21.12;77.45;94728.38;5112017;28;20223;-76
2023/05/25 10:29:03;;;;;;;7.40;6.00;;;;;;;20.54;74.29;94724.72;5105156;28;20636;-76
2023/05/25 10:31:32;;;;;;;9.00;5.82;;;;;;;20.47;75.87;94718.41;5111572;28;20209;-76
2023/05/25 10:33:59;;;;;;;6.57;4.97;;;;;;;20.32;72.80;94712.03;5097568;28;20236;-76
2023/05/25 10:36:27;;;;;;;5.57;5.00;;;;;;;20.54;73.88;94715.66;5108557;28;20225;-78
2023/05/25 10:38:55;;;;;;;7.40;5.28;;;;;;;20.88;72.59;94697.66;5111512;28;20640;-78
2023/05/25 10:41:22;;;;;;;6.68;4.78;;;;;;;20.61;70.31;94698.38;5107673;28;20283;-77
2023/05/25 10:43:50;;;;;;;7.03;4.85;;;;;;;20.97;70.90;94696.47;5107628;28;20194;-77
2023/05/25 10:46:17;;;;;;;8.27;5.40;;;;;;;21.50;69.71;94691.78;5101454;28;20337;-77
2023/05/25 10:48:47;;;;;;;6.18;4.90;;;;;;;21.15;67.84;94681.53;5105403;28;20201;-78
2023/05/25 10:51:14;;;;;;;6.13;4.90;;;;;;;20.98;68.71;94676.81;5104550;28;20292;-77
2023/05/25 10:53:44;;;;;;;7.50;5.72;;;;;;;20.55;70.22;94671.22;5101057;28;20201;-77
2023/05/25 10:56:13;;;;;;;7.15;5.18;;;;;;;20.54;69.16;94669.66;5111206;28;20732;-77
2023/05/25 10:58:42;;;;;;;6.13;5.20;;;;;;;21.00;68.69;94668.94;5110173;28;20275;-75
2023/05/25 11:01:11;;;;;;;5.68;4.53;;;;;;;21.60;65.53;94668.91;5105637;28;20209;-76
2023/05/25 11:03:57;;;;;;;6.38;4.68;;;;;;;21.48;65.38;94663.81;5110024;28;20206;-74
2023/05/25 11:07:12;;;;;;;7.78;5.55;;;;;;;20.93;66.90;94668.91;5099588;28;20682;-74
2023/05/25 11:09:43;;;;;;;7.43;5.05;;;;;;;21.22;68.68;94667.78;5105415;28;20262;-75
2023/05/25 11:12:21;;;;;;;10.88;5.22;;;;;;;21.44;65.50;94665.00;5109991;28;20229;-74
2023/05/25 11:15:09;;;;;;;7.03;5.15;;;;;;;20.88;67.23;94661.06;5110943;28;20344;-75
2023/05/25 11:17:45;;;;;;;5.07;4.38;;;;;;;20.74;67.71;94675.59;5097729;28;20225;-74
2023/05/25 11:20:22;;;;;;;6.75;4.63;;;;;;;19.86;68.65;94674.09;5111481;28;20229;-76
2023/05/25 11:22:51;;;;;;;9.02;4.95;;;;;;;19.64;69.33;94672.44;5110980;28;20574;-78
2023/05/25 11:25:39;;;;;;;5.38;4.35;;;;;;;19.65;68.72;94679.50;5110827;28;20641;-85
2023/05/25 11:28:10;;;;;;;8.90;4.28;;;;;;;19.65;68.68;94668.50;5110867;28;20210;-76
2023/05/25 11:30:40;;;;;;;6.53;4.53;;;;;;;20.01;69.36;94685.16;5111457;28;20202;-76
2023/05/25 11:33:07;;;;;;;8.18;4.35;;;;;;;20.38;67.06;94671.97;5110520;28;20275;-75
2023/05/25 11:35:36;;;;;;;5.78;4.32;;;;;;;21.07;66.04;94674.44;5111289;28;20573;-74